createdAt,value
2023-03-04T00:01:32.844Z,-3.10
2023-03-04T00:04:00.832Z,-2.80
2023-03-04T00:06:28.904Z,-2.80
2023-03-04T00:08:56.958Z,-2.80
2023-03-04T00:11:24.953Z,-2.80
2023-03-04T00:13:53.564Z,-2.70
2023-03-04T00:16:21.547Z,-3.00
2023-03-04T00:18:50.975Z,-3.20
2023-03-04T00:21:18.866Z,-3.10
2023-03-04T00:23:46.872Z,-3.00
2023-03-04T00:26:14.817Z,-2.90
2023-03-04T00:28:42.759Z,-2.90
2023-03-04T00:31:11.469Z,-2.90
2023-03-04T00:33:40.324Z,-2.90
2023-03-04T00:36:10.241Z,-3.00
2023-03-04T00:38:38.302Z,-3.30
2023-03-04T00:41:06.450Z,-3.40
2023-03-04T00:43:34.431Z,-3.60
2023-03-04T00:46:02.546Z,-3.80
2023-03-04T00:48:30.466Z,-3.60
2023-03-04T00:50:58.701Z,-3.40
2023-03-04T00:53:28.031Z,-3.50
2023-03-04T00:55:55.918Z,-3.20
2023-03-04T00:58:23.872Z,-2.90
2023-03-04T01:00:51.916Z,-2.80
2023-03-04T01:03:19.973Z,-2.80
2023-03-04T01:05:47.878Z,-2.80
2023-03-04T01:08:15.800Z,-2.80
2023-03-04T01:10:45.434Z,-3.00
2023-03-04T01:13:13.401Z,-3.00
2023-03-04T01:15:41.436Z,-3.00
2023-03-04T01:18:09.404Z,-3.10
2023-03-04T01:20:37.343Z,-3.20
2023-03-04T01:23:05.326Z,-3.20
2023-03-04T01:25:33.219Z,-3.00
2023-03-04T01:28:02.620Z,-2.90
2023-03-04T01:30:30.640Z,-3.10
2023-03-04T01:32:59.189Z,-3.20
2023-03-04T01:35:27.271Z,-3.30
2023-03-04T01:37:55.276Z,-3.40
2023-03-04T01:40:23.428Z,-3.40
2023-03-04T01:42:51.930Z,-3.30
2023-03-04T01:45:21.796Z,-3.20
2023-03-04T01:47:51.218Z,-3.20
2023-03-04T01:50:23.793Z,-3.20
2023-03-04T01:52:52.028Z,-3.30
2023-03-04T01:55:21.588Z,-3.40
2023-03-04T01:57:51.300Z,-3.30
2023-03-04T02:00:32.128Z,-3.30
2023-03-04T02:03:02.290Z,-3.30
2023-03-04T02:05:31.791Z,-3.30
2023-03-04T02:08:01.765Z,-3.40
2023-03-04T02:10:30.419Z,-3.70
2023-03-04T02:12:58.369Z,-3.50
2023-03-04T02:15:26.841Z,-3.40
2023-03-04T02:17:56.369Z,-3.50
2023-03-04T02:20:37.149Z,-3.40
2023-03-04T02:23:10.635Z,-3.50
2023-03-04T02:25:49.949Z,-3.50
2023-03-04T02:28:19.453Z,-3.50
2023-03-04T02:30:47.907Z,-3.50
2023-03-04T02:33:18.596Z,-3.40
2023-03-04T02:35:47.641Z,-3.50
2023-03-04T02:38:15.681Z,-3.50
2023-03-04T02:40:47.612Z,-3.60
2023-03-04T02:43:16.075Z,-3.50
2023-03-04T02:45:47.376Z,-3.50
2023-03-04T02:48:19.138Z,-3.40
2023-03-04T02:50:49.736Z,-3.40
2023-03-04T02:53:18.078Z,-3.50
2023-03-04T02:55:46.310Z,-3.50
2023-03-04T02:58:14.862Z,-3.60
2023-03-04T03:00:43.257Z,-3.60
2023-03-04T03:03:12.655Z,-3.50
2023-03-04T03:05:41.126Z,-3.60
2023-03-04T03:08:09.535Z,-3.50
2023-03-04T03:10:37.620Z,-3.40
2023-03-04T03:13:05.588Z,-3.50
2023-03-04T03:15:33.578Z,-3.60
2023-03-04T03:18:01.524Z,-3.60
2023-03-04T03:20:30.791Z,-3.60
2023-03-04T03:22:58.666Z,-3.70
2023-03-04T03:25:26.577Z,-3.70
2023-03-04T03:27:54.532Z,-3.80
2023-03-04T03:30:22.609Z,-3.90
2023-03-04T03:32:50.721Z,-4.00
2023-03-04T03:35:19.327Z,-4.10
2023-03-04T03:37:49.929Z,-4.20
2023-03-04T03:40:18.073Z,-3.90
2023-03-04T03:42:47.073Z,-3.70
2023-03-04T03:45:15.175Z,-3.50
2023-03-04T03:47:43.083Z,-3.50
2023-03-04T03:50:12.067Z,-3.50
2023-03-04T03:52:40.028Z,-3.50
2023-03-04T03:55:10.352Z,-3.60
2023-03-04T03:57:38.320Z,-3.50
2023-03-04T04:00:07.726Z,-3.60
2023-03-04T04:02:35.866Z,-3.60
2023-03-04T04:05:03.899Z,-3.70
2023-03-04T04:07:31.789Z,-3.90
2023-03-04T04:09:59.717Z,-3.90
2023-03-04T04:12:29.168Z,-4.00
2023-03-04T04:14:57.178Z,-3.90
2023-03-04T04:17:25.188Z,-3.70
2023-03-04T04:19:53.352Z,-3.70
2023-03-04T04:22:22.074Z,-3.60
2023-03-04T04:24:50.131Z,-3.50
2023-03-04T04:27:18.304Z,-3.50
2023-03-04T04:29:47.650Z,-3.70
2023-03-04T04:32:15.632Z,-3.70
2023-03-04T04:34:43.530Z,-4.00
2023-03-04T04:37:11.413Z,-4.10
2023-03-04T04:39:39.717Z,-4.20
2023-03-04T04:42:07.653Z,-4.40
2023-03-04T04:44:36.246Z,-4.50
2023-03-04T04:47:06.298Z,-4.40
2023-03-04T04:49:34.312Z,-4.30
2023-03-04T04:52:02.595Z,-4.30
2023-03-04T04:54:30.580Z,-4.20
2023-03-04T04:56:58.613Z,-4.00
2023-03-04T04:59:26.593Z,-4.10
2023-03-04T05:01:54.776Z,-4.20
2023-03-04T05:04:24.092Z,-4.10
2023-03-04T05:06:52.070Z,-4.10
2023-03-04T05:09:20.869Z,-4.20
2023-03-04T05:11:48.804Z,-4.20
2023-03-04T05:14:16.755Z,-4.10
2023-03-04T05:16:44.666Z,-4.40
2023-03-04T05:19:12.645Z,-4.30
2023-03-04T05:21:42.065Z,-4.30
2023-03-04T05:24:10.233Z,-4.20
2023-03-04T05:26:38.271Z,-4.20
2023-03-04T05:29:06.307Z,-4.10
2023-03-04T05:31:34.379Z,-3.80
2023-03-04T05:34:02.334Z,-3.80
2023-03-04T05:36:30.236Z,-3.80
2023-03-04T05:38:59.893Z,-3.90
2023-03-04T05:41:27.858Z,-4.00
2023-03-04T05:43:56.490Z,-4.10
2023-03-04T05:46:26.113Z,-4.10
2023-03-04T05:48:54.654Z,-3.90
2023-03-04T05:51:23.180Z,-3.80
2023-03-04T05:53:51.181Z,-3.70
2023-03-04T05:56:21.883Z,-3.30
2023-03-04T05:58:50.016Z,-3.00
2023-03-04T06:01:18.508Z,-2.80
2023-03-04T06:03:48.473Z,-2.80
2023-03-04T06:06:16.509Z,-2.60
2023-03-04T06:08:44.468Z,-2.30
2023-03-04T06:11:12.385Z,-2.10
2023-03-04T06:13:41.765Z,-2.00
2023-03-04T06:16:10.946Z,-1.70
2023-03-04T06:18:39.085Z,-1.50
2023-03-04T06:21:07.252Z,-1.50
2023-03-04T06:23:35.285Z,-1.20
2023-03-04T06:26:03.361Z,-1.00
2023-03-04T06:28:32.404Z,-0.90
2023-03-04T06:31:01.898Z,-0.70
2023-03-04T06:33:29.912Z,-0.40
2023-03-04T06:35:58.597Z,-0.10
2023-03-04T06:38:27.314Z,0.20
2023-03-04T06:40:57.477Z,0.30
2023-03-04T06:43:25.790Z,0.20
2023-03-04T06:45:55.177Z,0.50
2023-03-04T06:48:24.697Z,0.90
2023-03-04T06:50:52.772Z,0.80
2023-03-04T06:53:20.811Z,0.80
2023-03-04T06:55:49.542Z,0.80
2023-03-04T06:58:18.141Z,1.40
2023-03-04T07:00:46.431Z,1.50
2023-03-04T07:03:14.777Z,1.40
2023-03-04T07:05:45.349Z,1.80
2023-03-04T07:08:13.427Z,1.70
2023-03-04T07:10:41.510Z,2.40
2023-03-04T07:13:09.517Z,2.30
2023-03-04T07:15:38.772Z,2.50
2023-03-04T07:18:06.824Z,3.10
2023-03-04T07:20:34.871Z,3.50
2023-03-04T07:23:04.177Z,3.80
2023-03-04T07:25:32.235Z,3.90
2023-03-04T07:28:00.220Z,4.00
2023-03-04T07:30:28.239Z,3.60
2023-03-04T07:32:58.914Z,3.90
2023-03-04T07:35:27.148Z,3.30
2023-03-04T07:37:55.126Z,2.90
2023-03-04T07:40:24.960Z,2.60
2023-03-04T07:42:53.512Z,2.90
2023-03-04T07:45:21.812Z,3.20
2023-03-04T07:47:49.904Z,3.70
2023-03-04T07:50:18.435Z,4.20
2023-03-04T07:52:48.577Z,4.40
2023-03-04T07:55:17.600Z,4.50
2023-03-04T07:57:48.612Z,4.70
2023-03-04T08:00:19.337Z,4.30
2023-03-04T08:02:47.477Z,4.10
2023-03-04T08:05:15.573Z,3.50
2023-03-04T08:07:43.459Z,3.40
2023-03-04T08:10:12.553Z,3.80
2023-03-04T08:12:40.595Z,4.10
2023-03-04T08:15:12.186Z,3.90
2023-03-04T08:17:40.242Z,3.40
2023-03-04T08:20:09.614Z,3.50
2023-03-04T08:22:37.536Z,3.60
2023-03-04T08:25:06.294Z,4.10
2023-03-04T08:27:34.408Z,3.70
2023-03-04T08:30:02.349Z,3.70
2023-03-04T08:32:31.760Z,4.00
2023-03-04T08:35:02.295Z,3.90
2023-03-04T08:37:31.033Z,4.10
2023-03-04T08:39:59.013Z,3.80
2023-03-04T08:42:27.084Z,4.10
2023-03-04T08:44:55.057Z,4.30
2023-03-04T08:47:22.988Z,4.10
2023-03-04T08:49:52.250Z,3.60
2023-03-04T08:52:20.229Z,3.30
2023-03-04T08:54:48.927Z,3.30
2023-03-04T08:57:16.862Z,3.10
2023-03-04T08:59:44.830Z,3.00
2023-03-04T09:02:12.765Z,3.20
2023-03-04T09:04:40.823Z,3.50
2023-03-04T09:07:10.122Z,3.70
2023-03-04T09:09:38.145Z,4.00
2023-03-04T09:12:06.502Z,3.80
2023-03-04T09:14:35.887Z,4.10
2023-03-04T09:17:04.415Z,5.00
2023-03-04T09:19:32.443Z,4.40
2023-03-04T09:22:00.402Z,4.70
2023-03-04T09:24:29.656Z,4.90
2023-03-04T09:26:57.796Z,5.10
2023-03-04T09:29:25.824Z,4.70
2023-03-04T09:31:53.701Z,4.50
2023-03-04T09:34:21.675Z,4.40
2023-03-04T09:36:49.622Z,4.50
2023-03-04T09:39:17.531Z,4.90
2023-03-04T09:41:49.714Z,5.00
2023-03-04T09:44:24.158Z,4.60
2023-03-04T09:46:52.847Z,4.60
2023-03-04T09:49:23.169Z,4.90
2023-03-04T09:52:03.887Z,5.00
2023-03-04T09:54:55.937Z,5.40
2023-03-04T09:57:31.232Z,5.10
2023-03-04T10:00:08.386Z,5.10
2023-03-04T10:02:45.888Z,5.00
2023-03-04T10:05:18.810Z,4.80
2023-03-04T10:07:51.593Z,4.90
2023-03-04T10:10:26.524Z,4.90
2023-03-04T10:12:56.835Z,4.70
2023-03-04T10:15:32.776Z,4.40
2023-03-04T10:18:09.140Z,4.50
2023-03-04T10:20:50.416Z,4.50
2023-03-04T10:23:23.345Z,5.00
2023-03-04T10:25:54.216Z,4.80
2023-03-04T10:28:26.546Z,5.10
2023-03-04T10:31:00.846Z,5.00
2023-03-04T10:33:31.513Z,4.80
2023-03-04T10:36:03.729Z,5.10
2023-03-04T10:38:33.580Z,4.60
2023-03-04T10:41:01.962Z,4.40
2023-03-04T10:43:31.446Z,4.30
2023-03-04T10:46:01.139Z,4.20
2023-03-04T10:48:30.954Z,4.10
2023-03-04T10:51:13.534Z,4.40
2023-03-04T10:53:43.959Z,4.30
2023-03-04T10:56:32.053Z,4.40
2023-03-04T10:59:40.462Z,4.90
2023-03-04T11:02:23.976Z,4.70
2023-03-04T11:04:56.099Z,4.80
2023-03-04T11:07:26.048Z,5.10
2023-03-04T11:09:56.055Z,5.40
2023-03-04T11:12:34.352Z,6.00
2023-03-04T11:15:05.030Z,5.70
2023-03-04T11:17:44.500Z,5.50
2023-03-04T11:20:26.191Z,5.50
2023-03-04T11:22:56.703Z,5.10
2023-03-04T11:25:28.394Z,4.50
2023-03-04T11:28:01.297Z,4.60
2023-03-04T11:30:42.355Z,5.00
2023-03-04T11:33:27.617Z,4.80
2023-03-04T11:36:05.022Z,5.50
2023-03-04T11:38:37.556Z,6.20
2023-03-04T11:41:10.732Z,6.40
2023-03-04T11:43:40.118Z,6.70
2023-03-04T11:46:43.756Z,7.00
2023-03-04T11:49:49.890Z,7.20
2023-03-04T11:52:28.021Z,7.20
2023-03-04T11:55:17.459Z,6.80
2023-03-04T11:57:56.050Z,6.80
2023-03-04T12:00:35.760Z,6.30
2023-03-04T12:03:35.910Z,5.80
2023-03-04T12:06:11.827Z,6.00
2023-03-04T12:09:01.565Z,6.20
2023-03-04T12:11:40.465Z,5.60
2023-03-04T12:14:24.877Z,5.30
2023-03-04T12:17:38.502Z,5.20
2023-03-04T12:20:29.043Z,5.40
2023-03-04T12:23:05.417Z,5.20
2023-03-04T12:25:40.879Z,4.90
2023-03-04T12:28:22.170Z,4.80
2023-03-04T12:31:05.375Z,4.80
2023-03-04T12:33:46.172Z,4.70
2023-03-04T12:36:24.585Z,4.90
2023-03-04T12:39:01.679Z,4.90
2023-03-04T12:41:47.774Z,5.00
2023-03-04T12:44:18.164Z,5.20
2023-03-04T12:47:06.913Z,5.20
2023-03-04T12:49:56.565Z,4.90
2023-03-04T12:52:36.234Z,4.80
2023-03-04T12:55:11.968Z,4.80
2023-03-04T12:57:40.732Z,5.00
2023-03-04T13:00:21.460Z,5.30
2023-03-04T13:02:59.277Z,5.30
2023-03-04T13:05:40.290Z,5.40
2023-03-04T13:08:16.981Z,5.50
2023-03-04T13:10:46.260Z,5.70
2023-03-04T13:13:36.217Z,5.50
2023-03-04T13:16:06.675Z,5.20
2023-03-04T13:18:36.099Z,5.10
2023-03-04T13:21:19.011Z,4.70
2023-03-04T13:23:47.004Z,4.90
2023-03-04T13:26:23.577Z,4.90
2023-03-04T13:29:09.789Z,5.00
2023-03-04T13:31:59.424Z,5.40
2023-03-04T13:34:46.790Z,5.40
2023-03-04T13:37:35.432Z,5.00
2023-03-04T13:40:40.318Z,5.20
2023-03-04T13:43:39.596Z,5.10
2023-03-04T13:46:30.122Z,5.10
2023-03-04T13:49:03.790Z,5.30
2023-03-04T13:51:33.442Z,5.30
2023-03-04T13:54:16.992Z,5.10
2023-03-04T13:56:46.741Z,5.00
2023-03-04T13:59:29.599Z,5.30
2023-03-04T14:02:14.891Z,5.10
2023-03-04T14:04:44.257Z,5.00
2023-03-04T14:07:21.687Z,4.70
2023-03-04T14:09:59.039Z,4.60
2023-03-04T14:12:28.542Z,4.60
2023-03-04T14:15:00.320Z,4.50
2023-03-04T14:17:31.634Z,4.30
2023-03-04T14:20:00.947Z,4.00
2023-03-04T14:22:31.447Z,3.80
2023-03-04T14:25:04.894Z,3.70
2023-03-04T14:27:36.184Z,3.50
2023-03-04T14:30:08.817Z,3.60
2023-03-04T14:32:36.885Z,3.80
2023-03-04T14:35:08.059Z,3.60
2023-03-04T14:37:44.661Z,3.80
2023-03-04T14:40:21.823Z,3.60
2023-03-04T14:42:53.453Z,3.30
2023-03-04T14:45:24.591Z,3.20
2023-03-04T14:47:56.696Z,3.10
2023-03-04T14:50:24.790Z,3.00
2023-03-04T14:53:11.887Z,2.90
2023-03-04T14:55:39.797Z,2.90
2023-03-04T14:58:10.039Z,2.90
2023-03-04T15:00:41.200Z,3.00
2023-03-04T15:03:22.049Z,3.10
2023-03-04T15:05:52.744Z,3.40
2023-03-04T15:08:24.721Z,3.10
2023-03-04T15:10:56.696Z,3.10
2023-03-04T15:13:40.158Z,3.10
2023-03-04T15:16:11.293Z,3.10
2023-03-04T15:18:39.744Z,3.00
2023-03-04T15:21:31.595Z,2.60
2023-03-04T15:23:59.856Z,2.10
2023-03-04T15:26:28.068Z,1.80
2023-03-04T15:28:56.206Z,1.80
2023-03-04T15:31:26.973Z,1.90
2023-03-04T15:33:54.935Z,1.90
2023-03-04T15:36:24.493Z,2.00
2023-03-04T15:38:54.485Z,2.10
2023-03-04T15:41:25.086Z,2.00
2023-03-04T15:43:54.731Z,2.00
2023-03-04T15:46:23.172Z,2.00
2023-03-04T15:48:52.949Z,2.00
2023-03-04T15:51:22.756Z,1.90
2023-03-04T15:53:53.913Z,1.80
2023-03-04T15:56:25.293Z,1.60
2023-03-04T15:58:56.576Z,1.40
2023-03-04T16:01:25.571Z,1.50
2023-03-04T16:03:55.172Z,1.30
2023-03-04T16:06:25.297Z,1.00
2023-03-04T16:08:54.005Z,0.90
2023-03-04T16:11:24.261Z,0.90
2023-03-04T16:13:52.740Z,0.90
2023-03-04T16:16:21.222Z,1.10
2023-03-04T16:18:49.747Z,1.10
2023-03-04T16:21:23.185Z,1.10
2023-03-04T16:23:53.036Z,1.00
2023-03-04T16:26:23.191Z,1.20
2023-03-04T16:28:51.450Z,1.20
2023-03-04T16:31:20.577Z,1.30
2023-03-04T16:33:50.314Z,1.40
2023-03-04T16:36:23.307Z,1.30
2023-03-04T16:38:52.527Z,1.20
2023-03-04T16:41:25.975Z,1.00
2023-03-04T16:43:56.003Z,0.80
2023-03-04T16:46:24.991Z,0.70
2023-03-04T16:48:53.172Z,0.40
2023-03-04T16:51:23.852Z,0.50
2023-03-04T16:53:56.168Z,0.40
2023-03-04T16:56:24.841Z,0.30
2023-03-04T16:58:54.075Z,0.10
2023-03-04T17:01:24.730Z,0.00
2023-03-04T17:03:53.433Z,0.00
2023-03-04T17:06:24.066Z,0.10
2023-03-04T17:08:52.611Z,0.00
2023-03-04T17:11:22.902Z,0.20
2023-03-04T17:13:51.530Z,0.40
2023-03-04T17:16:20.135Z,0.50
2023-03-04T17:18:48.300Z,0.60
2023-03-04T17:21:18.250Z,0.60
2023-03-04T17:23:47.545Z,0.50
2023-03-04T17:26:16.656Z,0.60
2023-03-04T17:28:44.603Z,0.60
2023-03-04T17:31:13.710Z,0.50
2023-03-04T17:33:43.698Z,0.40
2023-03-04T17:36:13.009Z,0.60
2023-03-04T17:38:41.275Z,0.90
2023-03-04T17:41:13.239Z,1.00
2023-03-04T17:43:44.334Z,1.00
2023-03-04T17:46:14.842Z,1.00
2023-03-04T17:48:43.558Z,1.00
2023-03-04T17:51:12.617Z,0.90
2023-03-04T17:53:40.865Z,1.00
2023-03-04T17:56:12.161Z,0.90
2023-03-04T17:58:40.728Z,0.90
2023-03-04T18:01:16.815Z,0.90
2023-03-04T18:03:44.796Z,0.90
2023-03-04T18:06:13.232Z,1.10
2023-03-04T18:08:41.402Z,1.20
2023-03-04T18:11:11.133Z,0.90
2023-03-04T18:13:39.470Z,0.60
2023-03-04T18:16:08.960Z,0.60
2023-03-04T18:18:37.634Z,0.80
2023-03-04T18:21:06.753Z,1.00
2023-03-04T18:23:35.680Z,1.10
2023-03-04T18:26:04.431Z,1.00
2023-03-04T18:28:33.815Z,0.70
2023-03-04T18:31:04.922Z,0.60
2023-03-04T18:33:34.026Z,0.50
2023-03-04T18:36:03.771Z,0.60
2023-03-04T18:38:31.881Z,0.70
2023-03-04T18:41:00.778Z,0.80
2023-03-04T18:43:29.003Z,0.80
2023-03-04T18:46:09.565Z,0.60
2023-03-04T18:48:44.484Z,0.70
2023-03-04T18:51:12.502Z,0.80
2023-03-04T18:53:40.806Z,0.70
2023-03-04T18:56:13.817Z,0.60
2023-03-04T18:58:44.828Z,0.60
2023-03-04T19:01:16.792Z,0.70
2023-03-04T19:03:45.877Z,0.70
2023-03-04T19:06:13.905Z,0.60
2023-03-04T19:08:42.006Z,0.60
2023-03-04T19:11:09.954Z,0.50
2023-03-04T19:13:37.992Z,0.40
2023-03-04T19:16:06.644Z,0.60
2023-03-04T19:18:36.031Z,0.60
2023-03-04T19:21:05.398Z,0.70
2023-03-04T19:23:33.675Z,0.50
2023-03-04T19:26:01.988Z,0.60
2023-03-04T19:28:29.989Z,0.70
2023-03-04T19:30:59.217Z,0.60
2023-03-04T19:33:27.420Z,0.50
2023-03-04T19:35:56.716Z,0.40
2023-03-04T19:38:24.710Z,0.20
2023-03-04T19:40:52.770Z,0.40
2023-03-04T19:43:20.715Z,0.30
2023-03-04T19:45:54.330Z,0.20
2023-03-04T19:48:22.800Z,0.20
2023-03-04T19:50:51.659Z,0.40
2023-03-04T19:53:20.990Z,0.20
2023-03-04T19:55:49.946Z,0.20
2023-03-04T19:58:18.148Z,0.20
2023-03-04T20:00:46.496Z,0.20
2023-03-04T20:03:14.962Z,0.10
2023-03-04T20:05:43.132Z,0.30
2023-03-04T20:08:11.132Z,0.10
2023-03-04T20:10:41.060Z,0.20
2023-03-04T20:13:10.216Z,0.30
2023-03-04T20:15:38.480Z,0.30
2023-03-04T20:18:06.681Z,0.40
2023-03-04T20:20:34.955Z,0.40
2023-03-04T20:23:02.878Z,0.30
2023-03-04T20:25:31.919Z,0.30
2023-03-04T20:28:01.241Z,0.30
2023-03-04T20:30:29.292Z,0.20
2023-03-04T20:32:57.294Z,0.30
2023-03-04T20:35:25.257Z,0.30
2023-03-04T20:37:53.285Z,0.30
2023-03-04T20:40:21.422Z,0.20
2023-03-04T20:42:49.390Z,0.30
2023-03-04T20:45:20.229Z,0.40
2023-03-04T20:47:48.674Z,0.40
2023-03-04T20:50:17.764Z,0.50
2023-03-04T20:52:45.974Z,0.40
2023-03-04T20:55:13.962Z,0.00
2023-03-04T20:57:41.911Z,0.00
2023-03-04T21:00:11.808Z,0.20
2023-03-04T21:02:41.284Z,0.30
2023-03-04T21:05:09.840Z,0.20
2023-03-04T21:07:37.813Z,0.30
2023-03-04T21:10:06.437Z,0.40
2023-03-04T21:12:34.484Z,0.30
2023-03-04T21:15:02.430Z,0.20
2023-03-04T21:17:30.378Z,0.40
2023-03-04T21:19:59.685Z,0.40
2023-03-04T21:22:27.872Z,0.40
2023-03-04T21:24:55.864Z,0.30
2023-03-04T21:27:24.137Z,0.30
2023-03-04T21:29:52.781Z,0.10
2023-03-04T21:32:25.497Z,0.10
2023-03-04T21:34:55.115Z,0.30
2023-03-04T21:37:25.958Z,0.30
2023-03-04T21:39:54.243Z,0.40
2023-03-04T21:42:22.160Z,0.30
2023-03-04T21:44:51.490Z,0.20
2023-03-04T21:47:19.896Z,0.00
2023-03-04T21:49:48.350Z,-0.10
2023-03-04T21:52:16.462Z,-0.10
2023-03-04T21:54:45.938Z,-0.10
2023-03-04T21:57:14.330Z,0.00
2023-03-04T21:59:42.737Z,0.30
2023-03-04T22:02:16.189Z,0.40
2023-03-04T22:04:44.134Z,0.20
2023-03-04T22:07:12.230Z,0.20
2023-03-04T22:09:40.480Z,0.20
2023-03-04T22:12:09.993Z,0.20
2023-03-04T22:14:38.041Z,0.30
2023-03-04T22:17:06.252Z,0.00
2023-03-04T22:19:34.336Z,0.20
2023-03-04T22:22:02.283Z,0.20
2023-03-04T22:24:30.215Z,0.20
2023-03-04T22:26:59.810Z,0.30
2023-03-04T22:29:29.768Z,0.50
2023-03-04T22:31:57.855Z,0.40
2023-03-04T22:34:25.892Z,0.30
2023-03-04T22:36:53.791Z,0.30
2023-03-04T22:39:22.959Z,0.50
2023-03-04T22:41:50.969Z,0.50
2023-03-04T22:44:19.140Z,0.60
2023-03-04T22:46:48.546Z,0.40
2023-03-04T22:49:16.633Z,0.50
2023-03-04T22:51:45.500Z,0.50
2023-03-04T22:54:15.496Z,0.30
2023-03-04T22:56:43.490Z,0.40
2023-03-04T22:59:11.797Z,0.40
2023-03-04T23:01:39.907Z,0.50
2023-03-04T23:04:09.209Z,0.20
2023-03-04T23:06:37.625Z,0.30
2023-03-04T23:09:05.763Z,0.30
2023-03-04T23:11:36.189Z,0.50
2023-03-04T23:14:06.907Z,0.50
2023-03-04T23:16:37.325Z,0.30
2023-03-04T23:19:05.962Z,0.20
2023-03-04T23:21:36.069Z,0.20
2023-03-04T23:24:05.433Z,0.20
2023-03-04T23:26:35.796Z,0.30
2023-03-04T23:29:06.020Z,0.40
2023-03-04T23:31:35.369Z,0.40
2023-03-04T23:34:04.368Z,0.20
2023-03-04T23:36:36.031Z,0.20
2023-03-04T23:39:05.229Z,0.30
2023-03-04T23:41:34.274Z,0.40
2023-03-04T23:44:02.989Z,0.60
2023-03-04T23:46:31.411Z,0.60
2023-03-04T23:48:59.660Z,0.60
2023-03-04T23:51:30.112Z,0.80
2023-03-04T23:54:00.261Z,0.90
2023-03-04T23:56:30.356Z,0.90
2023-03-04T23:58:59.664Z,0.90
